createdAt,value
2023-01-28T00:01:54.966Z,0.70
2023-01-28T00:04:21.739Z,0.82
2023-01-28T00:06:48.645Z,-0.10
2023-01-28T00:09:15.386Z,0.79
2023-01-28T00:11:42.583Z,0.48
2023-01-28T00:14:11.625Z,-0.08
2023-01-28T00:16:38.497Z,0.57
2023-01-28T00:19:05.973Z,0.20
2023-01-28T00:21:32.841Z,-0.93
2023-01-28T00:23:59.859Z,0.61
2023-01-28T00:26:26.722Z,-0.19
2023-01-28T00:28:54.023Z,-0.06
2023-01-28T00:31:24.562Z,0.46
2023-01-28T00:33:51.948Z,0.46
2023-01-28T00:36:20.347Z,0.45
2023-01-28T00:38:58.800Z,0.37
2023-01-28T00:41:30.933Z,0.36
2023-01-28T00:43:59.012Z,0.35
2023-01-28T00:46:28.802Z,-0.24
2023-01-28T00:48:55.558Z,0.01
2023-01-28T00:51:22.471Z,0.19
2023-01-28T00:53:49.834Z,0.30
2023-01-28T00:56:19.396Z,-1.32
2023-01-28T00:58:46.494Z,-0.70
2023-01-28T01:01:17.134Z,-0.26
2023-01-28T01:03:44.621Z,0.25
2023-01-28T01:06:13.342Z,0.23
2023-01-28T01:08:42.697Z,0.28
2023-01-28T01:11:11.497Z,0.32
2023-01-28T01:13:38.944Z,-0.31
2023-01-28T01:16:10.746Z,0.41
2023-01-28T01:18:37.979Z,0.40
2023-01-28T01:21:17.743Z,0.34
2023-01-28T01:23:46.701Z,0.24
2023-01-28T01:26:14.204Z,0.15
2023-01-28T01:28:41.189Z,-0.85
2023-01-28T01:31:17.613Z,0.07
2023-01-28T01:33:46.918Z,0.16
2023-01-28T01:36:15.652Z,-0.65
2023-01-28T01:38:43.292Z,-0.07
2023-01-28T01:41:22.147Z,-0.98
2023-01-28T01:43:57.893Z,-1.76
2023-01-28T01:46:32.265Z,-0.37
2023-01-28T01:49:08.882Z,0.25
2023-01-28T01:51:36.955Z,0.26
2023-01-28T01:54:05.203Z,0.21
2023-01-28T01:56:38.791Z,-0.57
2023-01-28T01:59:11.573Z,-0.65
2023-01-28T02:01:39.157Z,-0.30
2023-01-28T02:04:11.068Z,-0.86
2023-01-28T02:06:39.988Z,0.03
2023-01-28T02:09:29.480Z,0.20
2023-01-28T02:12:04.490Z,0.21
2023-01-28T02:14:35.794Z,0.18
2023-01-28T02:17:03.435Z,-0.07
2023-01-28T02:19:38.165Z,-1.01
2023-01-28T02:22:27.281Z,-0.42
2023-01-28T02:25:07.812Z,0.08
2023-01-28T02:28:10.079Z,-0.38
2023-01-28T02:30:42.232Z,-0.88
2023-01-28T02:33:18.659Z,-4.67
2023-01-28T02:35:53.148Z,-0.51
2023-01-28T02:38:39.741Z,0.06
2023-01-28T02:41:18.701Z,-1.10
2023-01-28T02:43:47.380Z,-0.08
2023-01-28T02:46:43.363Z,-0.40
2023-01-28T02:49:25.875Z,-0.05
2023-01-28T02:52:49.510Z,-0.27
2023-01-28T02:55:42.542Z,-1.18
2023-01-28T02:58:46.306Z,-0.07
2023-01-28T03:01:28.468Z,0.01
2023-01-28T03:04:08.739Z,0.07
2023-01-28T03:06:40.022Z,-0.54
2023-01-28T03:09:22.817Z,-0.15
2023-01-28T03:12:13.881Z,0.04
2023-01-28T03:15:01.681Z,-1.71
2023-01-28T03:18:19.570Z,-0.64
2023-01-28T03:21:14.600Z,-0.30
2023-01-28T03:24:26.307Z,-0.05
2023-01-28T03:27:35.802Z,-0.03
2023-01-28T03:30:33.759Z,-0.62
2023-01-28T03:33:24.832Z,-0.74
2023-01-28T03:36:10.917Z,-0.02
2023-01-28T03:38:48.962Z,-1.22
2023-01-28T03:41:22.529Z,-1.12
2023-01-28T03:43:50.791Z,-0.12
2023-01-28T03:46:18.420Z,-0.39
2023-01-28T03:48:45.805Z,-0.05
2023-01-28T03:51:14.350Z,-0.03
2023-01-28T03:53:41.234Z,-0.06
2023-01-28T03:56:08.888Z,-0.22
2023-01-28T03:59:08.691Z,-1.28
2023-01-28T04:01:36.961Z,-0.55
2023-01-28T04:04:03.807Z,-0.82
2023-01-28T04:06:31.042Z,-0.16
2023-01-28T04:09:26.757Z,-0.30
2023-01-28T04:12:13.730Z,-1.04
2023-01-28T04:14:46.523Z,-1.87
2023-01-28T04:17:20.787Z,-0.43
2023-01-28T04:19:47.577Z,-0.92
2023-01-28T04:22:16.002Z,-0.20
2023-01-28T04:24:43.181Z,-1.47
2023-01-28T04:27:10.605Z,-1.55
2023-01-28T04:29:37.284Z,-0.58
2023-01-28T04:32:22.823Z,-1.55
2023-01-28T04:35:21.089Z,-1.27
2023-01-28T04:38:08.674Z,-1.36
2023-01-28T04:40:56.516Z,-2.33
2023-01-28T04:43:30.194Z,-1.19
2023-01-28T04:46:29.228Z,-0.79
2023-01-28T04:49:08.851Z,-0.25
2023-01-28T04:52:01.993Z,-0.56
2023-01-28T04:54:51.868Z,-0.77
2023-01-28T04:57:18.722Z,-0.32
2023-01-28T04:59:46.035Z,-1.43
2023-01-28T05:02:13.311Z,-0.24
2023-01-28T05:04:42.031Z,-1.01
2023-01-28T05:07:11.996Z,-0.20
2023-01-28T05:09:40.497Z,-1.06
2023-01-28T05:12:07.927Z,-0.20
2023-01-28T05:14:36.919Z,-0.91
2023-01-28T05:17:10.576Z,-1.07
2023-01-28T05:19:38.177Z,-1.29
2023-01-28T05:22:10.268Z,-0.89
2023-01-28T05:24:41.965Z,-0.86
2023-01-28T05:27:09.192Z,-1.38
2023-01-28T05:29:36.183Z,-0.38
2023-01-28T05:32:03.232Z,-1.28
2023-01-28T05:34:31.046Z,-0.60
2023-01-28T05:37:00.885Z,-0.22
2023-01-28T05:39:31.471Z,-0.37
2023-01-28T05:41:58.477Z,-0.46
2023-01-28T05:44:25.376Z,-1.13
2023-01-28T05:47:18.237Z,-1.81
2023-01-28T05:49:55.116Z,-0.59
2023-01-28T05:52:47.958Z,-0.21
2023-01-28T05:55:22.132Z,-0.17
2023-01-28T05:57:49.832Z,-1.26
2023-01-28T06:00:18.929Z,-0.29
2023-01-28T06:02:45.971Z,-0.25
2023-01-28T06:05:15.397Z,-0.19
2023-01-28T06:07:45.370Z,-0.17
2023-01-28T06:10:12.837Z,-1.57
2023-01-28T06:12:40.115Z,-0.50
2023-01-28T06:15:25.276Z,-0.40
2023-01-28T06:18:01.128Z,-0.71
2023-01-28T06:20:31.803Z,-2.37
2023-01-28T06:22:59.946Z,-0.64
2023-01-28T06:25:26.873Z,-1.64
2023-01-28T06:27:54.446Z,-0.36
2023-01-28T06:30:21.215Z,-0.13
2023-01-28T06:32:48.283Z,-0.59
2023-01-28T06:35:15.326Z,-0.01
2023-01-28T06:37:43.378Z,-0.39
2023-01-28T06:40:10.913Z,-1.28
2023-01-28T06:42:37.814Z,-0.06
2023-01-28T06:45:04.843Z,-1.78
2023-01-28T06:47:31.525Z,-0.33
2023-01-28T06:49:58.253Z,-0.07
2023-01-28T06:52:25.036Z,-0.12
2023-01-28T06:54:51.983Z,-0.05
2023-01-28T06:57:19.007Z,-0.26
2023-01-28T06:59:46.403Z,-0.07
2023-01-28T07:02:13.147Z,-0.10
2023-01-28T07:04:40.143Z,-1.63
2023-01-28T07:07:07.010Z,-1.52
2023-01-28T07:09:33.950Z,-1.00
2023-01-28T07:12:01.202Z,-0.40
2023-01-28T07:14:27.994Z,0.08
2023-01-28T07:16:54.829Z,-0.34
2023-01-28T07:19:21.699Z,0.11
2023-01-28T07:21:48.484Z,-0.58
2023-01-28T07:24:15.303Z,0.07
2023-01-28T07:26:42.445Z,0.06
2023-01-28T07:29:09.598Z,-0.54
2023-01-28T07:31:36.341Z,0.19
2023-01-28T07:34:03.372Z,-0.98
2023-01-28T07:36:30.074Z,0.19
2023-01-28T07:38:56.784Z,-0.11
2023-01-28T07:41:23.627Z,0.37
2023-01-28T07:43:50.335Z,-0.27
2023-01-28T07:46:17.376Z,-1.30
2023-01-28T07:48:44.361Z,0.32
2023-01-28T07:51:12.008Z,-0.39
2023-01-28T07:53:39.914Z,0.52
2023-01-28T07:56:07.150Z,0.11
2023-01-28T07:58:34.728Z,0.24
2023-01-28T08:01:02.094Z,0.24
2023-01-28T08:03:29.209Z,0.54
2023-01-28T08:05:57.240Z,0.46
2023-01-28T08:08:26.583Z,0.75
2023-01-28T08:10:53.565Z,-0.64
2023-01-28T08:13:21.342Z,-0.10
2023-01-28T08:15:48.320Z,0.48
2023-01-28T08:18:16.746Z,0.28
2023-01-28T08:20:46.366Z,0.52
2023-01-28T08:23:20.067Z,-0.27
2023-01-28T08:25:48.296Z,-0.12
2023-01-28T08:28:16.759Z,-0.27
2023-01-28T08:30:44.405Z,0.52
2023-01-28T08:33:13.188Z,0.76
2023-01-28T08:35:43.115Z,0.80
2023-01-28T08:38:12.008Z,0.86
2023-01-28T08:40:38.830Z,0.45
2023-01-28T08:43:08.438Z,-0.98
2023-01-28T08:45:35.614Z,1.24
2023-01-28T08:48:05.474Z,0.18
2023-01-28T08:50:37.653Z,1.21
2023-01-28T08:53:07.942Z,1.14
2023-01-28T08:55:35.386Z,1.32
2023-01-28T08:58:04.112Z,-0.55
2023-01-28T09:00:30.973Z,1.34
2023-01-28T09:02:57.885Z,0.01
2023-01-28T09:05:24.944Z,1.33
2023-01-28T09:07:52.015Z,-0.48
2023-01-28T09:10:20.593Z,1.16
2023-01-28T09:12:47.353Z,1.14
2023-01-28T09:15:14.712Z,0.81
2023-01-28T09:17:41.489Z,0.91
2023-01-28T09:20:08.964Z,0.62
2023-01-28T09:22:36.185Z,0.78
2023-01-28T09:25:03.254Z,-0.11
2023-01-28T09:27:30.025Z,1.05
2023-01-28T09:29:56.883Z,0.20
2023-01-28T09:32:24.749Z,-0.08
2023-01-28T09:34:51.534Z,1.02
2023-01-28T09:37:18.440Z,1.29
2023-01-28T09:39:45.376Z,1.94
2023-01-28T09:42:43.355Z,1.30
2023-01-28T09:45:10.221Z,2.62
2023-01-28T09:47:48.648Z,2.39
2023-01-28T09:50:24.403Z,2.97
2023-01-28T09:52:53.361Z,2.09
2023-01-28T09:55:31.404Z,2.59
2023-01-28T09:57:58.326Z,2.21
2023-01-28T10:00:50.882Z,2.96
2023-01-28T10:03:32.872Z,2.63
2023-01-28T10:06:17.948Z,2.68
2023-01-28T10:09:09.182Z,1.63
2023-01-28T10:12:02.163Z,2.30
2023-01-28T10:15:07.811Z,2.38
2023-01-28T10:17:49.053Z,2.47
2023-01-28T10:20:25.339Z,2.58
2023-01-28T10:22:58.897Z,1.35
2023-01-28T10:25:30.270Z,2.23
2023-01-28T10:27:57.132Z,2.18
2023-01-28T10:30:26.576Z,1.55
2023-01-28T10:32:59.593Z,1.84
2023-01-28T10:35:27.790Z,1.03
2023-01-28T10:38:02.320Z,1.69
2023-01-28T10:40:29.333Z,1.85
2023-01-28T10:42:56.198Z,0.82
2023-01-28T10:45:40.476Z,1.39
2023-01-28T10:48:18.634Z,1.54
2023-01-28T10:50:57.361Z,1.49
2023-01-28T10:53:39.355Z,1.51
2023-01-28T10:56:11.198Z,1.26
2023-01-28T10:58:54.156Z,1.21
2023-01-28T11:01:21.133Z,0.99
2023-01-28T11:03:59.823Z,1.40
2023-01-28T11:06:29.118Z,1.37
2023-01-28T11:08:56.473Z,1.07
2023-01-28T11:11:27.391Z,-0.44
2023-01-28T11:13:55.874Z,1.24
2023-01-28T11:16:22.965Z,0.69
2023-01-28T11:19:04.110Z,1.11
2023-01-28T11:21:32.955Z,1.49
2023-01-28T11:24:16.720Z,1.57
2023-01-28T11:26:49.480Z,1.33
2023-01-28T11:29:23.844Z,1.37
2023-01-28T11:31:51.351Z,1.15
2023-01-28T11:34:20.501Z,1.59
2023-01-28T11:36:54.340Z,1.24
2023-01-28T11:39:25.973Z,1.37
2023-01-28T11:41:54.044Z,0.61
2023-01-28T11:44:24.093Z,1.16
2023-01-28T11:47:09.770Z,1.31
2023-01-28T11:49:45.798Z,1.13
2023-01-28T11:53:02.488Z,1.15
2023-01-28T11:55:49.150Z,1.03
2023-01-28T11:58:42.114Z,0.99
2023-01-28T12:01:53.111Z,1.07
2023-01-28T12:04:37.576Z,0.50
2023-01-28T12:07:10.353Z,1.14
2023-01-28T12:10:00.242Z,0.91
2023-01-28T12:12:42.255Z,1.22
2023-01-28T12:15:33.021Z,1.13
2023-01-28T12:18:17.982Z,1.20
2023-01-28T12:20:58.225Z,1.24
2023-01-28T12:23:58.594Z,1.34
2023-01-28T12:26:49.229Z,0.82
2023-01-28T12:29:42.828Z,1.13
2023-01-28T12:32:19.066Z,1.11
2023-01-28T12:35:14.090Z,1.17
2023-01-28T12:38:08.279Z,1.29
2023-01-28T12:40:46.928Z,1.36
2023-01-28T12:43:23.181Z,1.38
2023-01-28T12:45:56.562Z,0.56
2023-01-28T12:48:37.753Z,1.28
2023-01-28T12:51:12.202Z,0.71
2023-01-28T12:53:47.711Z,1.57
2023-01-28T12:56:22.794Z,0.24
2023-01-28T12:58:56.764Z,1.72
2023-01-28T13:01:30.078Z,1.26
2023-01-28T13:04:14.277Z,1.81
2023-01-28T13:06:56.909Z,1.76
2023-01-28T13:09:26.907Z,1.72
2023-01-28T13:11:58.798Z,0.08
2023-01-28T13:14:31.119Z,1.46
2023-01-28T13:17:24.482Z,1.28
2023-01-28T13:19:51.488Z,1.11
2023-01-28T13:22:28.837Z,1.58
2023-01-28T13:24:55.989Z,1.32
2023-01-28T13:27:26.011Z,0.67
2023-01-28T13:30:23.375Z,1.49
2023-01-28T13:33:27.034Z,1.32
2023-01-28T13:35:55.510Z,-0.04
2023-01-28T13:38:23.113Z,0.56
2023-01-28T13:41:00.992Z,0.43
2023-01-28T13:43:31.417Z,1.08
2023-01-28T13:45:59.837Z,1.05
2023-01-28T13:48:49.743Z,1.11
2023-01-28T13:51:34.642Z,1.11
2023-01-28T13:54:15.766Z,0.96
2023-01-28T13:57:28.686Z,0.64
2023-01-28T14:00:15.520Z,0.80
2023-01-28T14:03:21.738Z,0.76
2023-01-28T14:06:08.426Z,0.76
2023-01-28T14:08:49.163Z,0.88
2023-01-28T14:11:18.988Z,0.85
2023-01-28T14:14:42.192Z,0.76
2023-01-28T14:17:32.898Z,0.79
2023-01-28T14:20:01.030Z,0.81
2023-01-28T14:22:28.599Z,0.84
2023-01-28T14:25:01.489Z,0.88
2023-01-28T14:27:39.065Z,-0.57
2023-01-28T14:30:20.854Z,0.56
2023-01-28T14:32:51.732Z,0.78
2023-01-28T14:35:24.729Z,0.73
2023-01-28T14:37:52.263Z,0.16
2023-01-28T14:40:21.053Z,-0.42
2023-01-28T14:42:52.880Z,0.54
2023-01-28T14:45:59.746Z,0.56
2023-01-28T14:48:43.036Z,0.33
2023-01-28T14:51:57.443Z,0.62
2023-01-28T14:54:55.468Z,0.60
2023-01-28T14:57:34.285Z,0.63
2023-01-28T15:00:02.139Z,0.46
2023-01-28T15:02:31.755Z,-0.02
2023-01-28T15:05:20.657Z,0.66
2023-01-28T15:07:49.111Z,-0.73
2023-01-28T15:10:16.377Z,0.57
2023-01-28T15:12:52.449Z,-0.03
2023-01-28T15:15:38.131Z,-0.38
2023-01-28T15:18:19.449Z,0.60
2023-01-28T15:20:48.735Z,0.52
2023-01-28T15:23:18.141Z,0.21
2023-01-28T15:25:45.930Z,0.39
2023-01-28T15:28:26.641Z,-0.06
2023-01-28T15:30:53.754Z,-0.03
2023-01-28T15:33:23.072Z,0.37
2023-01-28T15:35:54.808Z,-0.03
2023-01-28T15:38:23.384Z,0.38
2023-01-28T15:40:59.882Z,0.38
2023-01-28T15:43:34.072Z,-0.26
2023-01-28T15:46:01.784Z,0.16
2023-01-28T15:48:32.962Z,0.43
2023-01-28T15:51:03.253Z,0.51
2023-01-28T15:53:53.466Z,0.55
2023-01-28T15:56:25.215Z,0.60
2023-01-28T15:58:52.467Z,0.63
2023-01-28T16:01:21.058Z,0.65
2023-01-28T16:04:01.940Z,0.61
2023-01-28T16:06:36.147Z,0.62
2023-01-28T16:09:17.538Z,0.64
2023-01-28T16:11:52.533Z,0.69
2023-01-28T16:14:25.147Z,0.68
2023-01-28T16:16:54.173Z,0.27
2023-01-28T16:19:41.803Z,0.62
2023-01-28T16:22:38.021Z,0.55
2023-01-28T16:25:32.219Z,0.54
2023-01-28T16:28:00.934Z,0.14
2023-01-28T16:30:28.620Z,0.59
2023-01-28T16:32:55.691Z,0.59
2023-01-28T16:35:24.973Z,0.59
2023-01-28T16:37:51.849Z,0.58
2023-01-28T16:40:21.936Z,0.33
2023-01-28T16:42:49.381Z,0.63
2023-01-28T16:45:23.640Z,0.70
2023-01-28T16:47:53.751Z,0.73
2023-01-28T16:50:22.058Z,0.57
2023-01-28T16:52:51.750Z,0.29
2023-01-28T16:55:21.067Z,-0.19
2023-01-28T16:57:53.108Z,0.63
2023-01-28T17:00:24.580Z,0.21
2023-01-28T17:02:52.923Z,0.35
2023-01-28T17:05:21.083Z,-0.29
2023-01-28T17:07:49.441Z,0.64
2023-01-28T17:10:16.828Z,0.64
2023-01-28T17:12:48.025Z,0.33
2023-01-28T17:15:15.245Z,0.68
2023-01-28T17:17:42.263Z,0.59
2023-01-28T17:20:09.898Z,0.60
2023-01-28T17:22:36.683Z,0.13
2023-01-28T17:25:03.700Z,0.71
2023-01-28T17:27:30.621Z,-0.01
2023-01-28T17:29:57.452Z,0.71
2023-01-28T17:32:24.402Z,0.75
2023-01-28T17:34:51.391Z,0.82
2023-01-28T17:37:18.218Z,0.82
2023-01-28T17:39:45.208Z,-1.19
2023-01-28T17:42:12.814Z,0.64
2023-01-28T17:44:39.694Z,0.62
2023-01-28T17:47:06.512Z,0.68
2023-01-28T17:49:33.377Z,0.28
2023-01-28T17:52:00.360Z,0.72
2023-01-28T17:54:27.336Z,-0.02
2023-01-28T17:56:54.346Z,0.13
2023-01-28T17:59:22.161Z,0.18
2023-01-28T18:01:50.789Z,0.38
2023-01-28T18:04:17.694Z,0.68
2023-01-28T18:06:45.794Z,0.55
2023-01-28T18:09:13.179Z,0.50
2023-01-28T18:11:40.009Z,-0.88
2023-01-28T18:14:06.823Z,0.46
2023-01-28T18:16:33.623Z,0.45
2023-01-28T18:19:00.675Z,-0.54
2023-01-28T18:21:42.903Z,0.39
2023-01-28T18:24:17.876Z,0.45
2023-01-28T18:26:44.831Z,-0.34
2023-01-28T18:29:16.865Z,-0.21
2023-01-28T18:31:51.730Z,0.34
2023-01-28T18:34:18.664Z,0.34
2023-01-28T18:36:45.836Z,0.35
2023-01-28T18:39:13.704Z,-0.15
2023-01-28T18:41:40.932Z,-0.03
2023-01-28T18:44:18.105Z,0.24
2023-01-28T18:46:45.221Z,-1.67
2023-01-28T18:49:12.070Z,-0.86
2023-01-28T18:51:38.818Z,0.06
2023-01-28T18:54:09.361Z,-0.23
2023-01-28T18:56:38.331Z,-0.42
2023-01-28T18:59:06.651Z,-0.09
2023-01-28T19:01:34.861Z,-0.13
2023-01-28T19:04:02.178Z,-0.02
2023-01-28T19:06:30.512Z,-0.07
2023-01-28T19:09:00.256Z,-0.39
2023-01-28T19:11:29.719Z,-0.17
2023-01-28T19:13:56.979Z,-0.36
2023-01-28T19:16:24.455Z,-0.28
2023-01-28T19:18:53.795Z,-0.39
2023-01-28T19:21:22.181Z,-0.87
2023-01-28T19:23:55.369Z,-0.69
2023-01-28T19:26:23.134Z,-0.64
2023-01-28T19:28:49.954Z,-0.81
2023-01-28T19:31:20.846Z,-0.89
2023-01-28T19:33:48.659Z,-0.86
2023-01-28T19:36:15.975Z,-0.90
2023-01-28T19:38:43.016Z,-1.85
2023-01-28T19:41:13.426Z,-1.94
2023-01-28T19:43:40.267Z,-0.99
2023-01-28T19:46:07.076Z,-1.91
2023-01-28T19:48:34.077Z,-0.85
2023-01-28T19:51:08.418Z,-0.95
2023-01-28T19:53:36.633Z,-1.25
2023-01-28T19:56:07.626Z,-0.90
2023-01-28T19:58:35.828Z,-2.06
2023-01-28T20:01:11.307Z,-1.04
2023-01-28T20:03:38.800Z,-1.90
2023-01-28T20:06:12.215Z,-1.00
2023-01-28T20:08:39.668Z,-1.27
2023-01-28T20:11:09.011Z,-1.00
2023-01-28T20:13:37.644Z,-1.39
2023-01-28T20:16:09.937Z,-1.26
2023-01-28T20:18:37.083Z,-2.96
2023-01-28T20:21:05.368Z,-0.81
2023-01-28T20:23:32.829Z,-0.74
2023-01-28T20:26:01.049Z,-1.22
2023-01-28T20:28:28.128Z,-1.58
2023-01-28T20:30:55.523Z,-0.83
2023-01-28T20:33:22.438Z,-1.77
2023-01-28T20:35:49.312Z,-0.73
2023-01-28T20:38:16.069Z,-0.97
2023-01-28T20:40:43.800Z,-0.84
2023-01-28T20:43:10.624Z,-0.83
2023-01-28T20:45:37.399Z,-1.88
2023-01-28T20:48:04.580Z,-0.91
2023-01-28T20:50:31.523Z,-0.95
2023-01-28T20:52:58.268Z,-0.98
2023-01-28T20:55:25.786Z,-2.45
2023-01-28T20:57:52.660Z,-0.82
2023-01-28T21:00:20.035Z,-1.43
2023-01-28T21:02:46.884Z,-1.67
2023-01-28T21:05:13.884Z,-1.87
2023-01-28T21:07:41.053Z,-0.84
2023-01-28T21:10:08.548Z,-1.42
2023-01-28T21:12:35.308Z,-0.98
2023-01-28T21:15:01.981Z,-0.90
2023-01-28T21:17:31.613Z,-0.98
2023-01-28T21:19:58.797Z,-1.03
2023-01-28T21:22:25.497Z,-1.03
2023-01-28T21:24:52.217Z,-2.35
2023-01-28T21:27:19.104Z,-1.10
2023-01-28T21:29:45.881Z,-1.21
2023-01-28T21:32:12.750Z,-2.16
2023-01-28T21:34:39.600Z,-1.50
2023-01-28T21:37:06.286Z,-1.15
2023-01-28T21:39:33.002Z,-1.60
2023-01-28T21:41:59.947Z,-1.28
2023-01-28T21:44:26.668Z,-1.49
2023-01-28T21:46:53.448Z,-2.68
2023-01-28T21:49:20.215Z,-1.21
2023-01-28T21:51:47.231Z,-1.34
2023-01-28T21:54:16.254Z,-0.98
2023-01-28T21:56:45.032Z,-2.52
2023-01-28T21:59:27.730Z,-2.15
2023-01-28T22:01:58.869Z,-0.93
2023-01-28T22:04:52.126Z,-0.83
2023-01-28T22:07:20.072Z,-0.92
2023-01-28T22:09:47.750Z,-1.18
2023-01-28T22:12:15.675Z,-1.38
2023-01-28T22:14:43.416Z,-1.12
2023-01-28T22:17:11.824Z,-0.97
2023-01-28T22:19:39.304Z,-1.10
2023-01-28T22:22:06.844Z,-1.61
2023-01-28T22:24:33.639Z,-2.57
2023-01-28T22:27:00.441Z,-1.96
2023-01-28T22:29:27.261Z,-1.50
2023-01-28T22:31:54.502Z,-1.67
2023-01-28T22:34:22.095Z,-1.57
2023-01-28T22:36:50.892Z,-0.79
2023-01-28T22:39:17.953Z,-0.96
2023-01-28T22:41:45.445Z,-0.78
2023-01-28T22:44:12.390Z,-1.21
2023-01-28T22:46:39.196Z,-0.71
2023-01-28T22:49:06.144Z,-1.70
2023-01-28T22:51:35.548Z,-1.44
2023-01-28T22:54:03.201Z,-1.26
2023-01-28T22:56:30.992Z,-0.85
2023-01-28T22:59:03.179Z,-1.71
2023-01-28T23:01:30.002Z,-1.32
2023-01-28T23:03:56.988Z,-1.55
2023-01-28T23:06:25.687Z,-1.70
2023-01-28T23:08:52.694Z,-1.29
2023-01-28T23:11:27.178Z,-0.91
2023-01-28T23:14:18.072Z,-1.14
2023-01-28T23:17:04.433Z,-0.98
2023-01-28T23:19:49.900Z,-0.93
2023-01-28T23:22:41.668Z,-1.56
2023-01-28T23:25:09.132Z,-0.80
2023-01-28T23:27:35.965Z,-1.12
2023-01-28T23:30:10.014Z,-1.40
2023-01-28T23:32:40.259Z,-0.68
2023-01-28T23:35:09.167Z,-1.51
2023-01-28T23:37:36.154Z,-0.73
2023-01-28T23:40:03.932Z,-1.75
2023-01-28T23:42:30.682Z,-0.72
2023-01-28T23:44:57.329Z,-0.76
2023-01-28T23:47:24.405Z,-2.04
2023-01-28T23:49:51.191Z,-1.64
2023-01-28T23:52:18.134Z,-1.70
2023-01-28T23:54:45.089Z,-1.06
2023-01-28T23:57:11.884Z,-1.18
2023-01-28T23:59:38.640Z,-1.12
